createdAt,value
2022-08-27T02:30:34.319Z,1012.31
2022-08-27T02:31:34.383Z,1012.31
2022-08-27T02:32:34.291Z,1012.34
2022-08-27T02:33:34.309Z,1012.34
2022-08-27T02:34:34.291Z,1012.34
2022-08-27T02:35:34.282Z,1012.31
2022-08-27T02:36:34.284Z,1012.3
2022-08-27T02:37:34.289Z,1012.28
2022-08-27T02:38:34.286Z,1012.24
2022-08-27T02:39:34.299Z,1012.27
2022-08-27T02:40:34.369Z,1012.24
2022-08-27T02:41:34.290Z,1012.26
2022-08-27T02:42:34.303Z,1012.27
2022-08-27T02:43:34.302Z,1012.34
2022-08-27T02:44:34.285Z,1012.3
2022-08-27T02:45:35.515Z,1012.31
2022-08-27T02:46:34.361Z,1012.3
2022-08-27T02:47:34.294Z,1012.28
2022-08-27T02:48:34.288Z,1012.23
2022-08-27T02:49:34.305Z,1012.23
2022-08-27T02:50:34.286Z,1012.24
2022-08-27T02:51:34.293Z,1012.22
2022-08-27T02:52:34.285Z,1012.23
2022-08-27T02:53:34.292Z,1012.23
2022-08-27T02:54:34.297Z,1012.23
2022-08-27T02:55:34.283Z,1012.22
2022-08-27T02:56:34.277Z,1012.28
2022-08-27T02:57:36.546Z,1012.23
2022-08-27T02:58:34.295Z,1012.27
2022-08-27T02:59:34.282Z,1012.28
2022-08-27T03:00:34.285Z,1012.28
2022-08-27T03:01:34.333Z,1012.32
2022-08-27T03:02:34.411Z,1012.36
2022-08-27T03:03:34.294Z,1012.36
2022-08-27T03:04:34.280Z,1012.35
2022-08-27T03:05:34.284Z,1012.38
2022-08-27T03:06:34.277Z,1012.38
2022-08-27T03:07:34.276Z,1012.38
2022-08-27T03:08:52.022Z,1012.38
2022-08-27T03:09:34.312Z,1012.4
2022-08-27T03:10:34.279Z,1012.43
2022-08-27T03:11:34.286Z,1012.44
2022-08-27T03:12:34.272Z,1012.45
2022-08-27T03:13:34.296Z,1012.48
2022-08-27T03:14:34.286Z,1012.51
2022-08-27T03:15:34.280Z,1012.47
2022-08-27T03:16:34.280Z,1012.49
2022-08-27T03:17:34.275Z,1012.53
2022-08-27T03:18:34.293Z,1012.53
2022-08-27T03:19:34.287Z,1012.55
2022-08-27T03:20:34.280Z,1012.56
2022-08-27T03:21:34.280Z,1012.57
2022-08-27T03:22:34.286Z,1012.59
2022-08-27T03:23:34.295Z,1012.57
2022-08-27T03:24:34.308Z,1012.55
2022-08-27T03:25:34.285Z,1012.62
2022-08-27T03:26:34.293Z,1012.63
2022-08-27T03:27:34.289Z,1012.59
2022-08-27T03:28:34.291Z,1012.62
2022-08-27T03:29:34.285Z,1012.61
2022-08-27T03:30:34.286Z,1012.61
2022-08-27T03:31:34.326Z,1012.64
2022-08-27T03:32:34.285Z,1012.71
2022-08-27T03:33:34.301Z,1012.67
2022-08-27T03:34:34.284Z,1012.66
2022-08-27T03:35:34.283Z,1012.68
2022-08-27T03:36:34.285Z,1012.65
2022-08-27T03:37:34.293Z,1012.64
2022-08-27T03:38:34.312Z,1012.6
2022-08-27T03:39:34.305Z,1012.63
2022-08-27T03:40:34.325Z,1012.66
2022-08-27T03:41:54.009Z,1012.62
2022-08-27T03:42:34.293Z,1012.61
2022-08-27T03:43:34.307Z,1012.61
2022-08-27T03:44:34.290Z,1012.57
2022-08-27T03:45:56.657Z,1012.56
2022-08-27T03:46:34.315Z,1012.56
2022-08-27T03:47:34.289Z,1012.61
2022-08-27T03:48:34.311Z,1012.57
2022-08-27T03:49:34.291Z,1012.59
2022-08-27T03:50:34.297Z,1012.62
2022-08-27T03:51:34.293Z,1012.62
2022-08-27T03:52:34.302Z,1012.64
2022-08-27T03:53:34.313Z,1012.65
2022-08-27T03:54:34.318Z,1012.67
2022-08-27T03:55:34.288Z,1012.71
2022-08-27T03:56:34.299Z,1012.7
2022-08-27T03:57:34.299Z,1012.74
2022-08-27T03:58:34.307Z,1012.73
2022-08-27T03:59:34.303Z,1012.71
2022-08-27T04:00:34.300Z,1012.71
2022-08-27T04:01:34.371Z,1012.64
2022-08-27T04:02:34.375Z,1012.69
2022-08-27T04:03:34.307Z,1012.7
2022-08-27T04:04:34.298Z,1012.73
2022-08-27T04:05:34.300Z,1012.74
2022-08-27T04:06:34.305Z,1012.78
2022-08-27T04:07:34.301Z,1012.78
2022-08-27T04:08:34.306Z,1012.79
2022-08-27T04:09:34.318Z,1012.79
2022-08-27T04:10:34.854Z,1012.79
2022-08-27T04:11:34.302Z,1012.84
2022-08-27T04:12:34.302Z,1012.82
2022-08-27T04:13:34.304Z,1012.86
2022-08-27T04:14:34.304Z,1012.84
2022-08-27T04:15:34.296Z,1012.8
2022-08-27T04:16:34.407Z,1012.87
2022-08-27T04:17:34.300Z,1012.82
2022-08-27T04:18:34.308Z,1012.82
2022-08-27T04:19:34.295Z,1012.87
2022-08-27T04:20:35.471Z,1012.87
2022-08-27T04:21:34.296Z,1012.85
2022-08-27T04:22:34.321Z,1012.92
2022-08-27T04:23:34.319Z,1012.92
2022-08-27T04:24:34.319Z,1012.88
2022-08-27T04:25:34.292Z,1012.9
2022-08-27T04:26:34.287Z,1012.89
2022-08-27T04:27:34.290Z,1012.92
2022-08-27T04:28:38.267Z,1012.95
2022-08-27T04:29:34.298Z,1012.95
2022-08-27T04:30:34.297Z,1012.94
2022-08-27T04:31:34.320Z,1012.99
2022-08-27T04:32:34.398Z,1012.98
2022-08-27T04:33:34.309Z,1012.97
2022-08-27T04:34:34.288Z,1012.97
2022-08-27T04:35:34.286Z,1012.97
2022-08-27T04:36:34.299Z,1012.97
2022-08-27T04:37:34.288Z,1012.97
2022-08-27T04:38:34.308Z,1012.95
2022-08-27T04:39:34.311Z,1012.95
2022-08-27T04:40:34.320Z,1012.95
2022-08-27T04:41:34.304Z,1012.95
2022-08-27T04:42:34.296Z,1012.93
2022-08-27T04:43:34.309Z,1012.89
2022-08-27T04:44:34.305Z,1012.93
2022-08-27T04:45:34.301Z,1012.92
2022-08-27T04:46:34.436Z,1012.92
2022-08-27T04:47:34.291Z,1012.94
2022-08-27T04:48:34.304Z,1012.91
2022-08-27T04:49:34.298Z,1012.89
2022-08-27T04:50:34.287Z,1012.89
2022-08-27T04:51:34.303Z,1012.87
2022-08-27T04:52:34.295Z,1012.8
2022-08-27T04:53:34.304Z,1012.8
2022-08-27T04:54:34.310Z,1012.77
2022-08-27T04:55:34.318Z,1012.77
2022-08-27T04:56:34.309Z,1012.74
2022-08-27T04:57:34.292Z,1012.74
2022-08-27T04:58:34.313Z,1012.76
2022-08-27T04:59:34.293Z,1012.73
2022-08-27T05:00:34.289Z,1012.73
2022-08-27T05:01:34.364Z,1012.67
2022-08-27T05:02:34.296Z,1012.7
2022-08-27T05:03:34.307Z,1012.69
2022-08-27T05:04:34.300Z,1012.7
2022-08-27T05:05:34.386Z,1012.75
2022-08-27T05:06:34.286Z,1012.72
2022-08-27T05:07:34.302Z,1012.72
2022-08-27T05:08:34.320Z,1012.68
2022-08-27T05:09:34.316Z,1012.69
2022-08-27T05:10:34.319Z,1012.69
2022-08-27T05:11:34.292Z,1012.6
2022-08-27T05:12:34.294Z,1012.63
2022-08-27T05:13:34.298Z,1012.6
2022-08-27T05:14:34.297Z,1012.55
2022-08-27T05:15:34.339Z,1012.56
2022-08-27T05:16:34.292Z,1012.51
2022-08-27T05:17:34.294Z,1012.5
2022-08-27T05:18:41.693Z,1012.51
2022-08-27T05:19:34.295Z,1012.51
2022-08-27T05:20:34.294Z,1012.51
2022-08-27T05:21:34.302Z,1012.45
2022-08-27T05:22:34.297Z,1012.43
2022-08-27T05:23:34.306Z,1012.41
2022-08-27T05:24:34.314Z,1012.39
2022-08-27T05:25:34.312Z,1012.39
2022-08-27T05:26:34.293Z,1012.37
2022-08-27T05:27:34.291Z,1012.39
2022-08-27T05:28:34.307Z,1012.47
2022-08-27T05:29:34.297Z,1012.39
2022-08-27T05:30:34.298Z,1012.39
2022-08-27T05:31:34.359Z,1012.43
2022-08-27T05:32:34.298Z,1012.41
2022-08-27T05:33:34.312Z,1012.37
2022-08-27T05:34:34.293Z,1012.43
2022-08-27T05:35:34.295Z,1012.39
2022-08-27T05:36:34.291Z,1012.39
2022-08-27T05:37:34.292Z,1012.37
2022-08-27T05:38:34.303Z,1012.35
2022-08-27T05:39:34.309Z,1012.35
2022-08-27T05:40:34.416Z,1012.31
2022-08-27T05:41:34.535Z,1012.34
2022-08-27T05:42:34.298Z,1012.27
2022-08-27T05:43:34.306Z,1012.31
2022-08-27T05:44:40.968Z,1012.32
2022-08-27T05:45:34.284Z,1012.3
2022-08-27T05:46:34.357Z,1012.35
2022-08-27T05:47:37.543Z,1012.35
2022-08-27T05:48:34.294Z,1012.37
2022-08-27T05:49:34.297Z,1012.38
2022-08-27T05:50:34.290Z,1012.38
2022-08-27T05:51:34.314Z,1012.43
2022-08-27T05:52:34.295Z,1012.47
2022-08-27T05:53:34.314Z,1012.44
2022-08-27T05:54:34.311Z,1012.49
2022-08-27T05:55:34.291Z,1012.51
2022-08-27T05:56:34.291Z,1012.52
2022-08-27T05:57:34.297Z,1012.5
2022-08-27T05:58:34.301Z,1012.49
2022-08-27T05:59:34.696Z,1012.46
2022-08-27T06:00:34.294Z,1012.48
2022-08-27T06:01:34.294Z,1012.45
2022-08-27T06:02:34.382Z,1012.44
2022-08-27T06:03:34.297Z,1012.45
2022-08-27T06:04:34.291Z,1012.44
2022-08-27T06:05:34.344Z,1012.41
2022-08-27T06:06:34.293Z,1012.47
2022-08-27T06:07:34.294Z,1012.47
2022-08-27T06:08:34.312Z,1012.43
2022-08-27T06:09:34.308Z,1012.45
2022-08-27T06:10:34.289Z,1012.45
2022-08-27T06:11:34.298Z,1012.46
2022-08-27T06:12:34.300Z,1012.44
2022-08-27T06:13:34.302Z,1012.46
2022-08-27T06:14:34.293Z,1012.46
2022-08-27T06:15:34.331Z,1012.44
2022-08-27T06:16:34.289Z,1012.45
2022-08-27T06:17:34.296Z,1012.47
2022-08-27T06:18:34.309Z,1012.5
2022-08-27T06:19:34.299Z,1012.51
2022-08-27T06:20:34.289Z,1012.51
2022-08-27T06:21:34.292Z,1012.52
2022-08-27T06:22:34.297Z,1012.53
2022-08-27T06:23:34.304Z,1012.5
2022-08-27T06:24:34.305Z,1012.51
2022-08-27T06:25:34.314Z,1012.51
2022-08-27T06:26:34.291Z,1012.5
2022-08-27T06:27:34.300Z,1012.49
2022-08-27T06:28:34.309Z,1012.49
2022-08-27T06:29:34.293Z,1012.47
2022-08-27T06:30:34.300Z,1012.49
2022-08-27T06:31:34.367Z,1012.51
2022-08-27T06:32:34.291Z,1012.49
2022-08-27T06:33:34.309Z,1012.51
2022-08-27T06:34:34.295Z,1012.5
2022-08-27T06:35:34.294Z,1012.45
2022-08-27T06:36:34.288Z,1012.51
2022-08-27T06:37:34.295Z,1012.49
2022-08-27T06:38:34.368Z,1012.52
2022-08-27T06:39:34.313Z,1012.48
2022-08-27T06:40:34.349Z,1012.46
2022-08-27T06:41:34.299Z,1012.44
2022-08-27T06:42:34.786Z,1012.43
2022-08-27T06:43:34.306Z,1012.43
2022-08-27T06:44:34.297Z,1012.44
2022-08-27T06:45:34.288Z,1012.44
2022-08-27T06:46:34.362Z,1012.46
2022-08-27T06:47:34.296Z,1012.44
2022-08-27T06:48:34.301Z,1012.46
2022-08-27T06:49:34.302Z,1012.48
2022-08-27T06:50:34.286Z,1012.48
2022-08-27T06:51:34.298Z,1012.45
2022-08-27T06:52:34.287Z,1012.49
2022-08-27T06:53:34.305Z,1012.51
2022-08-27T06:54:34.308Z,1012.51
2022-08-27T06:55:37.205Z,1012.51
2022-08-27T06:56:34.299Z,1012.49
2022-08-27T06:57:34.305Z,1012.51
2022-08-27T06:58:34.306Z,1012.51
2022-08-27T06:59:34.293Z,1012.47
2022-08-27T07:00:34.290Z,1012.45
2022-08-27T07:01:34.362Z,1012.53
2022-08-27T07:02:34.339Z,1012.54
2022-08-27T07:03:34.301Z,1012.52
2022-08-27T07:04:34.288Z,1012.55
2022-08-27T07:05:34.290Z,1012.59
2022-08-27T07:06:34.288Z,1012.59
2022-08-27T07:07:36.508Z,1012.59
2022-08-27T07:08:34.295Z,1012.57
2022-08-27T07:09:34.326Z,1012.59
2022-08-27T07:10:34.295Z,1012.59
2022-08-27T07:11:34.298Z,1012.63
2022-08-27T07:12:34.289Z,1012.65
2022-08-27T07:13:34.342Z,1012.66
2022-08-27T07:14:37.727Z,1012.67
2022-08-27T07:15:34.407Z,1012.67
2022-08-27T07:16:34.293Z,1012.7
2022-08-27T07:17:34.302Z,1012.62
2022-08-27T07:18:34.310Z,1012.66
2022-08-27T07:19:34.294Z,1012.65
2022-08-27T07:20:34.302Z,1012.63
2022-08-27T07:21:34.299Z,1012.66
2022-08-27T07:22:34.313Z,1012.66
2022-08-27T07:23:34.304Z,1012.65
2022-08-27T07:24:34.313Z,1012.65
2022-08-27T07:25:34.292Z,1012.63
2022-08-27T07:26:34.294Z,1012.62
2022-08-27T07:27:34.290Z,1012.64
2022-08-27T07:28:34.302Z,1012.7
2022-08-27T07:29:34.291Z,1012.68
2022-08-27T07:30:34.379Z,1012.68
2022-08-27T07:31:34.298Z,1012.7
2022-08-27T07:32:34.296Z,1012.72
2022-08-27T07:33:34.306Z,1012.73
2022-08-27T07:34:34.339Z,1012.68
2022-08-27T07:35:34.303Z,1012.7
2022-08-27T07:36:34.296Z,1012.68
2022-08-27T07:37:35.151Z,1012.66
2022-08-27T07:38:34.313Z,1012.64
2022-08-27T07:39:34.307Z,1012.68
2022-08-27T07:40:34.459Z,1012.65
2022-08-27T07:41:34.304Z,1012.66
2022-08-27T07:42:34.297Z,1012.66
2022-08-27T07:43:34.317Z,1012.67
2022-08-27T07:44:35.275Z,1012.65
2022-08-27T07:45:34.298Z,1012.63
2022-08-27T07:46:37.986Z,1012.59
2022-08-27T07:47:34.305Z,1012.65
2022-08-27T07:48:34.304Z,1012.62
2022-08-27T07:49:34.297Z,1012.65
2022-08-27T07:50:34.293Z,1012.62
2022-08-27T07:51:34.294Z,1012.67
2022-08-27T07:52:34.297Z,1012.66
2022-08-27T07:53:34.382Z,1012.69
2022-08-27T07:54:34.315Z,1012.69
2022-08-27T07:55:34.294Z,1012.69
2022-08-27T07:56:34.294Z,1012.69
2022-08-27T07:57:34.297Z,1012.69
2022-08-27T07:58:34.304Z,1012.68
2022-08-27T07:59:34.292Z,1012.72
2022-08-27T08:00:34.289Z,1012.72
2022-08-27T08:01:34.354Z,1012.73
2022-08-27T08:02:34.340Z,1012.71
2022-08-27T08:03:34.310Z,1012.74
2022-08-27T08:04:34.300Z,1012.78
2022-08-27T08:05:34.289Z,1012.75
2022-08-27T08:06:34.296Z,1012.76
2022-08-27T08:07:34.288Z,1012.76
2022-08-27T08:08:34.297Z,1012.75
2022-08-27T08:09:34.558Z,1012.84
2022-08-27T08:10:35.566Z,1012.84
2022-08-27T08:11:34.287Z,1012.84
2022-08-27T08:12:34.291Z,1012.82
2022-08-27T08:13:34.316Z,1012.87
2022-08-27T08:14:34.291Z,1012.81
2022-08-27T08:15:34.299Z,1012.89
2022-08-27T08:16:34.345Z,1012.9
2022-08-27T08:17:34.289Z,1012.93
2022-08-27T08:18:34.320Z,1012.93
2022-08-27T08:19:34.284Z,1012.96
2022-08-27T08:20:56.393Z,1012.96
2022-08-27T08:21:34.290Z,1012.94
2022-08-27T08:22:34.289Z,1012.93
2022-08-27T08:23:34.300Z,1012.96
2022-08-27T08:24:34.305Z,1012.95
2022-08-27T08:25:35.515Z,1012.9
2022-08-27T08:26:34.288Z,1012.97
2022-08-27T08:27:34.293Z,1012.9
2022-08-27T08:28:34.309Z,1012.92
2022-08-27T08:29:34.294Z,1012.91
2022-08-27T08:30:35.362Z,1012.86
2022-08-27T08:31:34.291Z,1012.9
2022-08-27T08:32:34.295Z,1012.91
2022-08-27T08:33:34.304Z,1012.96
2022-08-27T08:34:34.319Z,1012.93
2022-08-27T08:35:40.702Z,1012.92
2022-08-27T08:36:34.292Z,1012.92
2022-08-27T08:37:34.348Z,1012.95
2022-08-27T08:38:34.308Z,1012.94
2022-08-27T08:39:34.302Z,1012.9
2022-08-27T08:40:34.337Z,1012.94
2022-08-27T08:41:34.301Z,1012.96
2022-08-27T08:42:34.303Z,1013
2022-08-27T08:43:34.320Z,1012.96
2022-08-27T08:44:34.293Z,1012.96
2022-08-27T08:45:34.298Z,1012.93
2022-08-27T08:46:34.349Z,1012.98
2022-08-27T08:47:34.302Z,1012.95
2022-08-27T08:48:34.326Z,1012.98
2022-08-27T08:49:34.299Z,1012.94
2022-08-27T08:50:34.298Z,1012.94
2022-08-27T08:51:34.297Z,1012.97
2022-08-27T08:52:34.296Z,1012.9
2022-08-27T08:53:34.327Z,1012.98
2022-08-27T08:54:34.306Z,1012.96
2022-08-27T08:55:34.301Z,1012.96
2022-08-27T08:56:34.294Z,1012.99
2022-08-27T08:57:34.312Z,1013
2022-08-27T08:58:34.311Z,1012.97
2022-08-27T08:59:34.303Z,1013
2022-08-27T09:00:34.346Z,1013
2022-08-27T09:01:34.314Z,1013.03
2022-08-27T09:02:34.295Z,1013
2022-08-27T09:03:34.354Z,1013.01
2022-08-27T09:04:34.292Z,1012.99
2022-08-27T09:05:34.288Z,1012.97
2022-08-27T09:06:34.298Z,1012.94
2022-08-27T09:07:34.306Z,1012.94
2022-08-27T09:08:37.647Z,1012.95
2022-08-27T09:09:34.314Z,1013
2022-08-27T09:10:34.290Z,1012.97
2022-08-27T09:11:34.290Z,1012.97
2022-08-27T09:12:34.294Z,1012.98
2022-08-27T09:13:34.311Z,1012.97
2022-08-27T09:14:34.291Z,1012.99
2022-08-27T09:15:34.294Z,1012.99
2022-08-27T09:16:34.358Z,1012.99
2022-08-27T09:17:34.290Z,1012.98
2022-08-27T09:18:34.295Z,1013.01
2022-08-27T09:19:34.310Z,1013.03
2022-08-27T09:20:34.287Z,1013.03
2022-08-27T09:21:34.303Z,1013
2022-08-27T09:22:34.302Z,1013
2022-08-27T09:23:34.303Z,1013
2022-08-27T09:24:34.314Z,1012.97
2022-08-27T09:25:34.289Z,1012.96
2022-08-27T09:26:34.295Z,1012.97
2022-08-27T09:27:34.289Z,1012.99
2022-08-27T09:28:34.298Z,1012.93
2022-08-27T09:29:34.297Z,1012.99
2022-08-27T09:30:34.323Z,1012.99
2022-08-27T09:31:34.288Z,1013.01
2022-08-27T09:32:34.292Z,1012.97
2022-08-27T09:33:44.416Z,1012.99
2022-08-27T09:34:34.297Z,1012.92
2022-08-27T09:35:34.294Z,1012.9
2022-08-27T09:36:34.321Z,1012.95
2022-08-27T09:37:34.959Z,1012.98
2022-08-27T09:38:34.300Z,1012.95
2022-08-27T09:39:34.319Z,1012.94
2022-08-27T09:40:34.339Z,1012.92
2022-08-27T09:41:34.289Z,1012.88
2022-08-27T09:42:34.290Z,1012.9
2022-08-27T09:43:34.317Z,1012.9
2022-08-27T09:44:34.292Z,1012.87
2022-08-27T09:45:34.323Z,1012.87
2022-08-27T09:46:34.302Z,1012.85
2022-08-27T09:47:34.291Z,1012.87
2022-08-27T09:48:34.305Z,1012.86
2022-08-27T09:49:34.309Z,1012.82
2022-08-27T09:50:34.287Z,1012.81
2022-08-27T09:51:34.298Z,1012.8
2022-08-27T09:52:37.732Z,1012.81
2022-08-27T09:53:34.427Z,1012.84
2022-08-27T09:54:34.325Z,1012.82
2022-08-27T09:55:34.294Z,1012.88
2022-08-27T09:56:34.286Z,1012.86
2022-08-27T09:57:34.301Z,1012.89
2022-08-27T09:58:34.306Z,1012.9
2022-08-27T09:59:34.287Z,1012.87
2022-08-27T10:00:34.300Z,1012.91
2022-08-27T10:01:34.351Z,1012.86
2022-08-27T10:02:34.289Z,1012.88
2022-08-27T10:03:34.418Z,1012.9
2022-08-27T10:04:34.291Z,1012.92
2022-08-27T10:05:34.292Z,1012.87
2022-08-27T10:06:34.290Z,1012.87
2022-08-27T10:07:34.292Z,1012.87
2022-08-27T10:08:34.309Z,1012.9
2022-08-27T10:09:34.319Z,1012.87
2022-08-27T10:10:34.296Z,1012.86
2022-08-27T10:11:34.292Z,1012.82
2022-08-27T10:12:34.286Z,1012.82
2022-08-27T10:13:34.312Z,1012.84
2022-08-27T10:14:34.291Z,1012.89
2022-08-27T10:15:38.744Z,1012.88
2022-08-27T10:16:34.323Z,1012.93
2022-08-27T10:17:34.293Z,1012.92
2022-08-27T10:18:34.304Z,1012.94
2022-08-27T10:19:34.300Z,1012.97
2022-08-27T10:20:34.290Z,1012.97
2022-08-27T10:21:34.293Z,1012.96
2022-08-27T10:22:34.291Z,1012.99
2022-08-27T10:23:34.306Z,1013.01
2022-08-27T10:24:34.312Z,1012.99
2022-08-27T10:25:34.293Z,1012.98
2022-08-27T10:26:34.315Z,1012.99
2022-08-27T10:27:34.287Z,1012.97
2022-08-27T10:28:34.298Z,1013.01
2022-08-27T10:29:34.286Z,1013.01
2022-08-27T10:30:34.315Z,1013.01
2022-08-27T10:31:34.338Z,1013.06
2022-08-27T10:32:34.291Z,1013.03
2022-08-27T10:33:34.305Z,1013.15
2022-08-27T10:34:34.300Z,1013.09
2022-08-27T10:35:34.291Z,1013.11
2022-08-27T10:36:34.302Z,1013.11
2022-08-27T10:37:36.667Z,1013.04
2022-08-27T10:38:34.294Z,1013.11
2022-08-27T10:39:34.319Z,1013.14
2022-08-27T10:40:34.365Z,1013.11
2022-08-27T10:41:34.287Z,1013.13
2022-08-27T10:42:34.283Z,1013.13
2022-08-27T10:43:34.299Z,1013.2
2022-08-27T10:44:34.294Z,1013.14
2022-08-27T10:45:34.289Z,1013.14
2022-08-27T10:46:34.478Z,1013.13
2022-08-27T10:47:34.296Z,1013.15
2022-08-27T10:48:34.304Z,1013.16
2022-08-27T10:49:34.290Z,1013.15
2022-08-27T10:50:34.332Z,1013.15
2022-08-27T10:51:34.284Z,1013.13
2022-08-27T10:52:34.291Z,1013.15
2022-08-27T10:53:34.316Z,1013.21
2022-08-27T10:54:34.304Z,1013.22
2022-08-27T10:55:34.290Z,1013.18
2022-08-27T10:56:34.290Z,1013.16
2022-08-27T10:57:53.932Z,1013.2
2022-08-27T10:58:34.301Z,1013.25
2022-08-27T10:59:34.295Z,1013.24
2022-08-27T11:00:34.353Z,1013.26
2022-08-27T11:01:34.287Z,1013.24
2022-08-27T11:02:34.354Z,1013.24
2022-08-27T11:03:34.319Z,1013.28
2022-08-27T11:04:34.291Z,1013.26
2022-08-27T11:05:34.295Z,1013.23
2022-08-27T11:06:34.308Z,1013.24
2022-08-27T11:07:34.292Z,1013.24
2022-08-27T11:08:34.307Z,1013.27
2022-08-27T11:09:34.331Z,1013.25
2022-08-27T11:10:34.290Z,1013.25
2022-08-27T11:12:10.542Z,1013.3
2022-08-27T11:12:34.290Z,1013.23
2022-08-27T11:13:34.343Z,1013.25
2022-08-27T11:14:34.302Z,1013.23
2022-08-27T11:15:34.288Z,1013.26
2022-08-27T11:16:34.362Z,1013.17
2022-08-27T11:17:34.292Z,1013.22
2022-08-27T11:18:34.302Z,1013.21
2022-08-27T11:19:34.309Z,1013.17
2022-08-27T11:20:34.305Z,1013.17
2022-08-27T11:21:34.297Z,1013.23
2022-08-27T11:22:34.292Z,1013.2
2022-08-27T11:23:34.307Z,1013.16
2022-08-27T11:24:35.175Z,1013.14
2022-08-27T11:25:34.289Z,1013.17
2022-08-27T11:26:34.292Z,1013.21
2022-08-27T11:27:34.308Z,1013.11
2022-08-27T11:28:34.300Z,1013.16
2022-08-27T11:29:34.299Z,1013.16
2022-08-27T11:30:34.297Z,1013.13
2022-08-27T11:31:34.345Z,1013.09
2022-08-27T11:32:34.300Z,1013.05
2022-08-27T11:33:34.305Z,1013.05
2022-08-27T11:34:34.289Z,1013.03
2022-08-27T11:35:34.661Z,1013.03
2022-08-27T11:36:34.286Z,1013.06
2022-08-27T11:37:34.380Z,1013.05
2022-08-27T11:38:34.292Z,1013.03
2022-08-27T11:39:34.313Z,1013
2022-08-27T11:40:34.391Z,1012.96
2022-08-27T11:41:45.062Z,1012.96
2022-08-27T11:42:34.291Z,1013.04
2022-08-27T11:43:34.309Z,1013
2022-08-27T11:44:34.294Z,1013
2022-08-27T11:45:34.292Z,1013
2022-08-27T11:46:34.297Z,1013.02
2022-08-27T11:47:39.798Z,1013.01
2022-08-27T11:48:38.718Z,1012.99
2022-08-27T11:49:38.698Z,1013
2022-08-27T11:50:38.710Z,1013.05
2022-08-27T11:51:38.706Z,1012.98
2022-08-27T11:52:38.694Z,1012.97
2022-08-27T11:53:51.886Z,1013
2022-08-27T11:54:38.715Z,1013.02
2022-08-27T11:55:38.691Z,1013
2022-08-27T11:56:38.695Z,1012.98
2022-08-27T11:57:38.700Z,1013
2022-08-27T11:58:52.900Z,1013
2022-08-27T11:59:38.702Z,1013
2022-08-27T12:00:38.692Z,1012.97
2022-08-27T12:01:38.694Z,1013
2022-08-27T12:02:38.710Z,1013.01
2022-08-27T12:03:38.808Z,1012.99
2022-08-27T12:04:38.803Z,1012.95
2022-08-27T12:05:38.693Z,1012.96
2022-08-27T12:06:38.685Z,1012.95
2022-08-27T12:07:38.702Z,1012.95
2022-08-27T12:08:38.696Z,1012.98
2022-08-27T12:09:38.699Z,1012.97
2022-08-27T12:10:38.697Z,1012.98
2022-08-27T12:11:38.689Z,1012.98
2022-08-27T12:12:38.697Z,1012.95
2022-08-27T12:13:38.731Z,1012.93
2022-08-27T12:14:38.697Z,1012.93
2022-08-27T12:15:38.697Z,1012.93
2022-08-27T12:16:38.727Z,1012.95
2022-08-27T12:17:38.685Z,1012.93
2022-08-27T12:18:38.696Z,1012.92
2022-08-27T12:19:38.688Z,1012.88
2022-08-27T12:20:38.703Z,1012.93
2022-08-27T12:21:38.693Z,1012.9
2022-08-27T12:22:39.614Z,1012.86
2022-08-27T12:23:38.711Z,1012.85
2022-08-27T12:24:38.699Z,1012.86
2022-08-27T12:25:38.691Z,1012.85
2022-08-27T12:26:38.686Z,1012.87
2022-08-27T12:27:38.688Z,1012.9
2022-08-27T12:28:38.690Z,1012.9
2022-08-27T12:29:40.233Z,1012.85
2022-08-27T12:30:38.671Z,1012.85
2022-08-27T12:31:38.724Z,1012.87
2022-08-27T12:32:38.684Z,1012.81
2022-08-27T12:33:38.706Z,1012.84
2022-08-27T12:34:38.686Z,1012.82
2022-08-27T12:35:38.687Z,1012.84
2022-08-27T12:36:38.690Z,1012.85
2022-08-27T12:37:38.698Z,1012.82
2022-08-27T12:38:38.691Z,1012.86
2022-08-27T12:39:38.712Z,1012.84
2022-08-27T12:40:38.733Z,1012.85
2022-08-27T12:41:44.408Z,1012.85
2022-08-27T12:42:38.709Z,1012.85
2022-08-27T12:43:38.700Z,1012.88
2022-08-27T12:44:38.687Z,1012.88
2022-08-27T12:45:38.687Z,1012.85
2022-08-27T12:46:39.036Z,1012.85
2022-08-27T12:47:38.667Z,1012.82
2022-08-27T12:48:38.685Z,1012.88
2022-08-27T12:49:39.641Z,1012.79
2022-08-27T12:50:38.673Z,1012.79
2022-08-27T12:51:39.010Z,1012.86
2022-08-27T12:52:38.673Z,1012.82
2022-08-27T12:53:38.771Z,1012.77
2022-08-27T12:54:38.693Z,1012.81
2022-08-27T12:55:38.676Z,1012.78
2022-08-27T12:56:38.727Z,1012.77
2022-08-27T12:57:38.667Z,1012.77
2022-08-27T12:58:38.677Z,1012.76
2022-08-27T12:59:38.680Z,1012.8
2022-08-27T13:00:38.887Z,1012.78
2022-08-27T13:01:43.092Z,1012.86
2022-08-27T13:03:19.991Z,1012.86
2022-08-27T13:04:18.838Z,1012.86
2022-08-27T13:05:40.823Z,1012.88
2022-08-27T13:07:10.362Z,1012.89
2022-08-27T13:08:09.513Z,1012.89
2022-08-27T13:09:09.341Z,1012.84
2022-08-27T13:10:09.369Z,1012.86
2022-08-27T13:11:09.371Z,1012.86
2022-08-27T13:13:02.642Z,1012.86
2022-08-27T13:14:01.513Z,1012.81
2022-08-27T13:15:40.910Z,1012.82
2022-08-27T13:16:40.147Z,1012.86
2022-08-27T13:18:10.877Z,1012.84
2022-08-27T13:20:14.014Z,1012.87
2022-08-27T13:21:11.399Z,1012.86
2022-08-27T13:22:54.188Z,1012.84
2022-08-27T13:23:53.181Z,1012.82
2022-08-27T13:24:53.144Z,1012.84
2022-08-27T13:26:31.092Z,1012.76
2022-08-27T13:27:30.003Z,1012.72
2022-08-27T13:28:29.980Z,1012.72
2022-08-27T13:29:29.979Z,1012.72
2022-08-27T13:30:35.512Z,1012.72
2022-08-27T13:31:30.087Z,1012.72
2022-08-27T13:32:29.973Z,1012.67
2022-08-27T13:33:29.973Z,1012.71
2022-08-27T13:34:29.975Z,1012.65
2022-08-27T13:35:29.968Z,1012.65
2022-08-27T13:36:32.028Z,1012.61
2022-08-27T13:37:29.966Z,1012.65
2022-08-27T13:38:29.975Z,1012.64
2022-08-27T13:39:29.976Z,1012.65
2022-08-27T13:40:30.025Z,1012.65
2022-08-27T13:41:29.978Z,1012.61
2022-08-27T13:42:31.611Z,1012.59
2022-08-27T13:43:30.609Z,1012.61
2022-08-27T13:44:29.975Z,1012.66
2022-08-27T13:45:29.973Z,1012.66
2022-08-27T13:46:30.082Z,1012.66
2022-08-27T13:47:29.968Z,1012.67
2022-08-27T13:48:29.967Z,1012.66
2022-08-27T13:49:29.972Z,1012.63
2022-08-27T13:50:29.948Z,1012.63
2022-08-27T13:51:29.967Z,1012.63
2022-08-27T13:52:29.970Z,1012.62
2022-08-27T13:53:29.976Z,1012.63
2022-08-27T13:54:29.973Z,1012.68
2022-08-27T13:55:29.986Z,1012.71
2022-08-27T13:56:29.957Z,1012.68
2022-08-27T13:57:29.981Z,1012.68
2022-08-27T13:58:29.972Z,1012.65
2022-08-27T13:59:29.968Z,1012.65
2022-08-27T14:00:30.221Z,1012.65
2022-08-27T14:01:30.134Z,1012.69
2022-08-27T14:02:30.040Z,1012.65
2022-08-27T14:03:29.966Z,1012.65
2022-08-27T14:04:29.979Z,1012.62
2022-08-27T14:05:29.968Z,1012.63
2022-08-27T14:06:31.982Z,1012.61
2022-08-27T14:07:29.956Z,1012.61
2022-08-27T14:08:29.952Z,1012.66
2022-08-27T14:09:29.972Z,1012.66
2022-08-27T14:10:29.940Z,1012.66
2022-08-27T14:11:29.962Z,1012.68
2022-08-27T14:12:32.527Z,1012.67
2022-08-27T14:13:29.965Z,1012.67
2022-08-27T14:14:29.963Z,1012.7
2022-08-27T14:15:29.977Z,1012.72
2022-08-27T14:16:30.041Z,1012.77
2022-08-27T14:17:29.946Z,1012.77
2022-08-27T14:18:48.436Z,1012.8
2022-08-27T14:19:36.502Z,1012.82
2022-08-27T14:20:29.956Z,1012.81
2022-08-27T14:21:29.942Z,1012.85
2022-08-27T14:22:29.942Z,1012.82
2022-08-27T14:23:29.942Z,1012.87
2022-08-27T14:24:29.970Z,1012.85
2022-08-27T14:25:30.012Z,1012.87
2022-08-27T14:26:29.937Z,1012.86
2022-08-27T14:27:29.967Z,1012.89
2022-08-27T14:28:29.955Z,1012.88
2022-08-27T14:29:29.961Z,1012.89
2022-08-27T14:30:30.343Z,1012.89
2022-08-27T14:31:29.984Z,1012.87
2022-08-27T14:32:29.979Z,1012.85
2022-08-27T14:33:29.993Z,1012.8
2022-08-27T14:34:29.976Z,1012.78
2022-08-27T14:35:29.942Z,1012.78
2022-08-27T14:36:29.959Z,1012.76
2022-08-27T14:37:29.979Z,1012.82
2022-08-27T14:38:29.959Z,1012.8
2022-08-27T14:39:29.974Z,1012.82
2022-08-27T14:40:30.016Z,1012.82
2022-08-27T14:41:29.958Z,1012.81
2022-08-27T14:42:29.969Z,1012.85
2022-08-27T14:43:29.949Z,1012.84
2022-08-27T14:44:29.972Z,1012.81
2022-08-27T14:45:29.950Z,1012.81